sensor_id;sensor_type;location;lat;lon;timestamp;pressure;altitude;pressure_sealevel;temperature;humidity
73341;BME280;61578;52.002;5.468;2023-04-25T00:00:09;101043.22;;;6.78;87.05
73341;BME280;61578;52.002;5.468;2023-04-25T00:00:41;101038.88;;;6.77;87.26
73341;BME280;61578;52.002;5.468;2023-04-25T00:01:11;101041.56;;;6.75;86.83
73341;BME280;61578;52.002;5.468;2023-04-25T00:01:43;101039.78;;;6.76;87.31
73341;BME280;61578;52.002;5.468;2023-04-25T00:02:13;101033.72;;;6.74;87.57
73341;BME280;61578;52.002;5.468;2023-04-25T00:02:45;101036.59;;;6.69;87.48
73341;BME280;61578;52.002;5.468;2023-04-25T00:03:16;101047.78;;;6.74;87.44
73341;BME280;61578;52.002;5.468;2023-04-25T00:03:49;101046.91;;;6.74;87.37
73341;BME280;61578;52.002;5.468;2023-04-25T00:04:20;101042.66;;;6.71;87.61
73341;BME280;61578;52.002;5.468;2023-04-25T00:04:51;101047.94;;;6.71;87.51
73341;BME280;61578;52.002;5.468;2023-04-25T00:05:26;101047.94;;;6.71;87.07
73341;BME280;61578;52.002;5.468;2023-04-25T00:06:00;101042.00;;;6.66;87.39
73341;BME280;61578;52.002;5.468;2023-04-25T00:06:33;101042.00;;;6.66;86.83
73341;BME280;61578;52.002;5.468;2023-04-25T00:07:06;101039.47;;;6.63;86.49
73341;BME280;61578;52.002;5.468;2023-04-25T00:07:37;101044.91;;;6.60;87.02
73341;BME280;61578;52.002;5.468;2023-04-25T00:08:08;101045.03;;;6.57;87.07
73341;BME280;61578;52.002;5.468;2023-04-25T00:08:39;101043.25;;;6.57;86.59
73341;BME280;61578;52.002;5.468;2023-04-25T00:09:10;101044.19;;;6.56;87.45
73341;BME280;61578;52.002;5.468;2023-04-25T00:09:41;101046.03;;;6.54;87.23
73341;BME280;61578;52.002;5.468;2023-04-25T00:10:12;101033.06;;;6.50;87.20
73341;BME280;61578;52.002;5.468;2023-04-25T00:10:43;101048.47;;;6.59;87.32
73341;BME280;61578;52.002;5.468;2023-04-25T00:11:14;101052.03;;;6.58;86.92
73341;BME280;61578;52.002;5.468;2023-04-25T00:11:45;101036.47;;;6.52;87.44
73341;BME280;61578;52.002;5.468;2023-04-25T00:12:15;101050.44;;;6.54;87.56
73341;BME280;61578;52.002;5.468;2023-04-25T00:12:47;101048.66;;;6.54;87.30
73341;BME280;61578;52.002;5.468;2023-04-25T00:13:18;101045.22;;;6.52;87.00
73341;BME280;61578;52.002;5.468;2023-04-25T00:13:49;101045.31;;;6.51;87.22
73341;BME280;61578;52.002;5.468;2023-04-25T00:14:24;101048.09;;;6.48;87.41
73341;BME280;61578;52.002;5.468;2023-04-25T00:14:55;101049.00;;;6.47;87.70
73341;BME280;61578;52.002;5.468;2023-04-25T00:15:27;101050.78;;;6.46;87.65
73341;BME280;61578;52.002;5.468;2023-04-25T00:15:58;101042.06;;;6.44;87.65
73341;BME280;61578;52.002;5.468;2023-04-25T00:16:29;101048.28;;;6.43;87.81
73341;BME280;61578;52.002;5.468;2023-04-25T00:17:03;101046.56;;;6.42;87.74
73341;BME280;61578;52.002;5.468;2023-04-25T00:17:34;101044.94;;;6.40;87.65
73341;BME280;61578;52.002;5.468;2023-04-25T00:18:05;101042.28;;;6.40;88.14
73341;BME280;61578;52.002;5.468;2023-04-25T00:18:36;101040.63;;;6.37;87.68
73341;BME280;61578;52.002;5.468;2023-04-25T00:19:07;101045.06;;;6.37;87.71
73341;BME280;61578;52.002;5.468;2023-04-25T00:19:37;101053.03;;;6.35;87.45
73341;BME280;61578;52.002;5.468;2023-04-25T00:20:11;101056.53;;;6.36;87.99
73341;BME280;61578;52.002;5.468;2023-04-25T00:20:43;101053.03;;;6.35;87.89
73341;BME280;61578;52.002;5.468;2023-04-25T00:21:18;101035.84;;;6.26;88.09
73341;BME280;61578;52.002;5.468;2023-04-25T00:21:50;101056.59;;;6.34;87.76
73341;BME280;61578;52.002;5.468;2023-04-25T00:22:20;101054.88;;;6.33;87.87
73341;BME280;61578;52.002;5.468;2023-04-25T00:22:54;101056.72;;;6.31;87.72
73341;BME280;61578;52.002;5.468;2023-04-25T00:23:26;101052.38;;;6.30;88.40
73341;BME280;61578;52.002;5.468;2023-04-25T00:23:57;101058.38;;;6.34;88.52
73341;BME280;61578;52.002;5.468;2023-04-25T00:24:30;101066.28;;;6.34;88.11
73341;BME280;61578;52.002;5.468;2023-04-25T00:25:01;101044.66;;;6.25;88.51
73341;BME280;61578;52.002;5.468;2023-04-25T00:25:33;101061.00;;;6.34;88.30
73341;BME280;61578;52.002;5.468;2023-04-25T00:26:04;101063.63;;;6.34;88.55
73341;BME280;61578;52.002;5.468;2023-04-25T00:26:35;101061.00;;;6.34;88.79
73341;BME280;61578;52.002;5.468;2023-04-25T00:27:06;101065.34;;;6.35;88.46
73341;BME280;61578;52.002;5.468;2023-04-25T00:27:37;101061.84;;;6.34;88.80
73341;BME280;61578;52.002;5.468;2023-04-25T00:28:16;101057.44;;;6.35;88.38
73341;BME280;61578;52.002;5.468;2023-04-25T00:28:47;101056.47;;;6.37;89.12
73341;BME280;61578;52.002;5.468;2023-04-25T00:29:18;101059.03;;;6.39;88.62
73341;BME280;61578;52.002;5.468;2023-04-25T00:29:49;101064.25;;;6.40;88.23
73341;BME280;61578;52.002;5.468;2023-04-25T00:30:19;101069.53;;;6.40;88.69
73341;BME280;61578;52.002;5.468;2023-04-25T00:30:50;101059.84;;;6.41;88.81
73341;BME280;61578;52.002;5.468;2023-04-25T00:31:21;101069.44;;;6.42;88.83
73341;BME280;61578;52.002;5.468;2023-04-25T00:31:52;101058.88;;;6.42;88.75
73341;BME280;61578;52.002;5.468;2023-04-25T00:32:22;101069.38;;;6.43;88.21
73341;BME280;61578;52.002;5.468;2023-04-25T00:32:53;101069.38;;;6.43;88.22
73341;BME280;61578;52.002;5.468;2023-04-25T00:33:24;101067.59;;;6.44;88.49
73341;BME280;61578;52.002;5.468;2023-04-25T00:33:54;101074.47;;;6.48;88.79
73341;BME280;61578;52.002;5.468;2023-04-25T00:34:25;101073.66;;;6.46;88.36
73341;BME280;61578;52.002;5.468;2023-04-25T00:34:56;101073.78;;;6.43;88.50
73341;BME280;61578;52.002;5.468;2023-04-25T00:35:27;101065.94;;;6.41;88.21
73341;BME280;61578;52.002;5.468;2023-04-25T00:35:58;101073.72;;;6.44;87.90
73341;BME280;61578;52.002;5.468;2023-04-25T00:36:29;101072.88;;;6.44;87.71
73341;BME280;61578;52.002;5.468;2023-04-25T00:37:01;101075.56;;;6.42;87.66
73341;BME280;61578;52.002;5.468;2023-04-25T00:37:32;101070.38;;;6.41;87.77
73341;BME280;61578;52.002;5.468;2023-04-25T00:38:03;101069.44;;;6.42;88.07
73341;BME280;61578;52.002;5.468;2023-04-25T00:38:33;101070.28;;;6.42;87.96
73341;BME280;61578;52.002;5.468;2023-04-25T00:39:05;101059.22;;;6.34;87.48
73341;BME280;61578;52.002;5.468;2023-04-25T00:39:36;101069.44;;;6.42;87.75
73341;BME280;61578;52.002;5.468;2023-04-25T00:40:07;101069.38;;;6.43;87.15
73341;BME280;61578;52.002;5.468;2023-04-25T00:40:38;101081.44;;;6.49;87.23
73341;BME280;61578;52.002;5.468;2023-04-25T00:41:09;101058.03;;;6.41;87.08
73341;BME280;61578;52.002;5.468;2023-04-25T00:41:40;101072.47;;;6.53;87.08
73341;BME280;61578;52.002;5.468;2023-04-25T00:42:11;101074.13;;;6.55;87.13
73341;BME280;61578;52.002;5.468;2023-04-25T00:42:45;101071.28;;;6.60;87.41
73341;BME280;61578;52.002;5.468;2023-04-25T00:43:17;101072.06;;;6.62;86.68
73341;BME280;61578;52.002;5.468;2023-04-25T00:43:48;101067.56;;;6.64;87.18
73341;BME280;61578;52.002;5.468;2023-04-25T00:44:20;101078.81;;;6.69;86.63
73341;BME280;61578;52.002;5.468;2023-04-25T00:44:52;101069.03;;;6.71;86.65
73341;BME280;61578;52.002;5.468;2023-04-25T00:45:27;101064.47;;;6.75;86.67
73341;BME280;61578;52.002;5.468;2023-04-25T00:46:01;101074.03;;;6.77;86.96
73341;BME280;61578;52.002;5.468;2023-04-25T00:46:32;101061.47;;;6.82;87.00
73341;BME280;61578;52.002;5.468;2023-04-25T00:47:04;101068.47;;;6.83;86.55
73341;BME280;61578;52.002;5.468;2023-04-25T00:47:36;101058.78;;;6.84;86.64
73341;BME280;61578;52.002;5.468;2023-04-25T00:48:06;101065.63;;;6.88;87.03
73341;BME280;61578;52.002;5.468;2023-04-25T00:48:37;101070.69;;;6.92;86.65
73341;BME280;61578;52.002;5.468;2023-04-25T00:49:08;101069.75;;;6.93;86.39
73341;BME280;61578;52.002;5.468;2023-04-25T00:49:47;101062.63;;;6.95;87.01
73341;BME280;61578;52.002;5.468;2023-04-25T00:50:17;101067.06;;;6.95;86.77
73341;BME280;61578;52.002;5.468;2023-04-25T00:50:54;101059.94;;;6.97;86.06
73341;BME280;61578;52.002;5.468;2023-04-25T00:51:28;101066.88;;;6.99;86.06
73341;BME280;61578;52.002;5.468;2023-04-25T00:52:01;101070.31;;;7.01;86.09
73341;BME280;61578;52.002;5.468;2023-04-25T00:52:32;101071.06;;;7.03;86.14
73341;BME280;61578;52.002;5.468;2023-04-25T00:53:03;101056.31;;;6.99;86.13
73341;BME280;61578;52.002;5.468;2023-04-25T00:53:35;101069.22;;;7.06;85.73
73341;BME280;61578;52.002;5.468;2023-04-25T00:54:07;101063.94;;;7.06;85.72
73341;BME280;61578;52.002;5.468;2023-04-25T00:54:38;101060.31;;;7.08;85.78
73341;BME280;61578;52.002;5.468;2023-04-25T00:55:10;101066.38;;;7.10;85.35
73341;BME280;61578;52.002;5.468;2023-04-25T00:55:42;101064.59;;;7.11;85.94
73341;BME280;61578;52.002;5.468;2023-04-25T00:56:16;101062.88;;;7.10;86.14
73341;BME280;61578;52.002;5.468;2023-04-25T00:56:50;101060.25;;;7.10;86.05
73341;BME280;61578;52.002;5.468;2023-04-25T00:57:21;101058.38;;;7.12;85.73
73341;BME280;61578;52.002;5.468;2023-04-25T00:57:55;101061.09;;;7.10;85.41
73341;BME280;61578;52.002;5.468;2023-04-25T00:58:25;101061.94;;;7.11;85.74
73341;BME280;61578;52.002;5.468;2023-04-25T00:58:57;101059.16;;;7.14;86.43
73341;BME280;61578;52.002;5.468;2023-04-25T00:59:28;101062.66;;;7.14;86.36
73341;BME280;61578;52.002;5.468;2023-04-25T01:00:01;101054.72;;;7.14;85.54
73341;BME280;61578;52.002;5.468;2023-04-25T01:00:33;101058.22;;;7.15;85.02
73341;BME280;61578;52.002;5.468;2023-04-25T01:01:04;101067.06;;;7.14;84.90
73341;BME280;61578;52.002;5.468;2023-04-25T01:01:38;101067.06;;;7.14;84.58
73341;BME280;61578;52.002;5.468;2023-04-25T01:02:09;101065.28;;;7.14;84.62
73341;BME280;61578;52.002;5.468;2023-04-25T01:02:41;101059.16;;;7.14;84.88
73341;BME280;61578;52.002;5.468;2023-04-25T01:03:14;101059.94;;;7.16;85.00
73341;BME280;61578;52.002;5.468;2023-04-25T01:03:49;101062.66;;;7.14;84.52
73341;BME280;61578;52.002;5.468;2023-04-25T01:04:21;101058.22;;;7.15;84.57
73341;BME280;61578;52.002;5.468;2023-04-25T01:04:53;101057.44;;;7.13;84.34
73341;BME280;61578;52.002;5.468;2023-04-25T01:05:23;101058.28;;;7.13;84.29
73341;BME280;61578;52.002;5.468;2023-04-25T01:05:54;101062.72;;;7.13;84.13
73341;BME280;61578;52.002;5.468;2023-04-25T01:06:25;101067.22;;;7.11;84.38
73341;BME280;61578;52.002;5.468;2023-04-25T01:06:57;101051.66;;;7.05;84.14
73341;BME280;61578;52.002;5.468;2023-04-25T01:07:29;101064.44;;;7.14;84.91
73341;BME280;61578;52.002;5.468;2023-04-25T01:07:59;101064.44;;;7.14;84.69
73341;BME280;61578;52.002;5.468;2023-04-25T01:08:33;101070.56;;;7.14;84.88
73341;BME280;61578;52.002;5.468;2023-04-25T01:09:05;101058.66;;;7.06;84.23
73341;BME280;61578;52.002;5.468;2023-04-25T01:09:37;101065.34;;;7.13;83.54
73341;BME280;61578;52.002;5.468;2023-04-25T01:10:08;101057.53;;;7.11;83.75
73341;BME280;61578;52.002;5.468;2023-04-25T01:10:40;101060.25;;;7.10;83.35
73341;BME280;61578;52.002;5.468;2023-04-25T01:11:11;101063.75;;;7.10;84.06
73341;BME280;61578;52.002;5.468;2023-04-25T01:11:41;101066.44;;;7.09;84.46
73341;BME280;61578;52.002;5.468;2023-04-25T01:12:13;101067.22;;;7.11;84.25
73341;BME280;61578;52.002;5.468;2023-04-25T01:12:44;101064.59;;;7.11;84.14
73341;BME280;61578;52.002;5.468;2023-04-25T01:13:15;101062.03;;;7.09;83.85
73341;BME280;61578;52.002;5.468;2023-04-25T01:13:46;101071.78;;;7.07;83.26
73341;BME280;61578;52.002;5.468;2023-04-25T01:14:17;101061.28;;;7.06;83.56
73341;BME280;61578;52.002;5.468;2023-04-25T01:14:50;101073.56;;;7.07;83.58
73341;BME280;61578;52.002;5.468;2023-04-25T01:15:25;101065.66;;;7.07;84.83
73341;BME280;61578;52.002;5.468;2023-04-25T01:15:56;101069.94;;;7.09;84.23
73341;BME280;61578;52.002;5.468;2023-04-25T01:16:26;101065.66;;;7.07;82.73
73341;BME280;61578;52.002;5.468;2023-04-25T01:16:58;101067.50;;;7.05;83.12
73341;BME280;61578;52.002;5.468;2023-04-25T01:17:29;101065.09;;;7.00;82.26
73341;BME280;61578;52.002;5.468;2023-04-25T01:18:03;101064.22;;;6.99;82.33
73341;BME280;61578;52.002;5.468;2023-04-25T01:18:41;101073.06;;;6.98;81.97
73341;BME280;61578;52.002;5.468;2023-04-25T01:19:16;101072.16;;;6.99;82.50
73341;BME280;61578;52.002;5.468;2023-04-25T01:19:48;101073.88;;;7.00;81.98
73341;BME280;61578;52.002;5.468;2023-04-25T01:20:22;101067.66;;;7.01;82.41
73341;BME280;61578;52.002;5.468;2023-04-25T01:20:54;101060.78;;;6.97;83.07
73341;BME280;61578;52.002;5.468;2023-04-25T01:21:28;101070.31;;;7.01;82.84
73341;BME280;61578;52.002;5.468;2023-04-25T01:22:00;101073.81;;;7.02;83.20
73341;BME280;61578;52.002;5.468;2023-04-25T01:22:37;101068.59;;;7.00;82.99
73341;BME280;61578;52.002;5.468;2023-04-25T01:23:08;101073.06;;;6.98;82.57
73341;BME280;61578;52.002;5.468;2023-04-25T01:23:43;101073.13;;;6.97;81.77
73341;BME280;61578;52.002;5.468;2023-04-25T01:24:14;101062.88;;;6.91;82.18
73341;BME280;61578;52.002;5.468;2023-04-25T01:24:45;101064.66;;;6.90;82.16
73341;BME280;61578;52.002;5.468;2023-04-25T01:25:17;101059.44;;;6.89;81.80
73341;BME280;61578;52.002;5.468;2023-04-25T01:25:49;101073.25;;;6.94;82.07
73341;BME280;61578;52.002;5.468;2023-04-25T01:26:21;101075.91;;;6.94;82.10
73341;BME280;61578;52.002;5.468;2023-04-25T01:26:54;101082.97;;;6.93;82.16
73341;BME280;61578;52.002;5.468;2023-04-25T01:27:38;101076.06;;;6.91;81.99
73341;BME280;61578;52.002;5.468;2023-04-25T01:28:11;101068.16;;;6.91;82.26
73341;BME280;61578;52.002;5.468;2023-04-25T01:28:42;101074.34;;;6.90;81.74
73341;BME280;61578;52.002;5.468;2023-04-25T01:29:13;101069.06;;;6.90;82.36
73341;BME280;61578;52.002;5.468;2023-04-25T01:29:44;101073.50;;;6.89;82.29
73341;BME280;61578;52.002;5.468;2023-04-25T01:30:16;101075.22;;;6.90;82.34
73341;BME280;61578;52.002;5.468;2023-04-25T01:30:51;101076.06;;;6.91;82.26
73341;BME280;61578;52.002;5.468;2023-04-25T01:31:22;101074.34;;;6.90;82.13
73341;BME280;61578;52.002;5.468;2023-04-25T01:31:53;101076.13;;;6.89;82.36
73341;BME280;61578;52.002;5.468;2023-04-25T01:32:26;101074.53;;;6.85;81.50
73341;BME280;61578;52.002;5.468;2023-04-25T01:32:57;101075.47;;;6.84;82.51
73341;BME280;61578;52.002;5.468;2023-04-25T01:33:29;101075.47;;;6.84;82.90
73341;BME280;61578;52.002;5.468;2023-04-25T01:34:00;101076.47;;;6.82;82.50
73341;BME280;61578;52.002;5.468;2023-04-25T01:34:34;101074.75;;;6.81;82.20
73341;BME280;61578;52.002;5.468;2023-04-25T01:35:06;101081.88;;;6.79;81.59
73341;BME280;61578;52.002;5.468;2023-04-25T01:35:41;101075.75;;;6.78;81.48
73341;BME280;61578;52.002;5.468;2023-04-25T01:36:13;101079.44;;;6.74;81.55
73341;BME280;61578;52.002;5.468;2023-04-25T01:36:49;101076.88;;;6.73;80.86
73341;BME280;61578;52.002;5.468;2023-04-25T01:37:21;101078.75;;;6.71;81.81
73341;BME280;61578;52.002;5.468;2023-04-25T01:37:52;101081.44;;;6.69;82.47
73341;BME280;61578;52.002;5.468;2023-04-25T01:38:23;101083.16;;;6.70;82.64
73341;BME280;61578;52.002;5.468;2023-04-25T01:38:57;101083.22;;;6.69;82.92
73341;BME280;61578;52.002;5.468;2023-04-25T01:39:28;101085.13;;;6.65;82.49
73341;BME280;61578;52.002;5.468;2023-04-25T01:40:04;101082.63;;;6.62;83.53
73341;BME280;61578;52.002;5.468;2023-04-25T01:40:39;101087.06;;;6.61;83.16
73341;BME280;61578;52.002;5.468;2023-04-25T01:41:11;101068.97;;;6.52;83.02
73341;BME280;61578;52.002;5.468;2023-04-25T01:41:42;101076.97;;;6.51;83.10
73341;BME280;61578;52.002;5.468;2023-04-25T01:42:16;101086.38;;;6.56;82.70
73341;BME280;61578;52.002;5.468;2023-04-25T01:42:47;101086.44;;;6.55;82.53
73341;BME280;61578;52.002;5.468;2023-04-25T01:43:18;101094.38;;;6.55;82.39
73341;BME280;61578;52.002;5.468;2023-04-25T01:43:49;101095.28;;;6.54;83.82
73341;BME280;61578;52.002;5.468;2023-04-25T01:44:21;101084.88;;;6.51;83.36
73341;BME280;61578;52.002;5.468;2023-04-25T01:44:52;101093.78;;;6.48;83.17
73341;BME280;61578;52.002;5.468;2023-04-25T01:45:23;101086.06;;;6.44;83.97
73341;BME280;61578;52.002;5.468;2023-04-25T01:45:55;101098.44;;;6.42;83.05
73341;BME280;61578;52.002;5.468;2023-04-25T01:46:27;101071.75;;;6.29;83.45
73341;BME280;61578;52.002;5.468;2023-04-25T01:47:00;101089.94;;;6.35;83.38
73341;BME280;61578;52.002;5.468;2023-04-25T01:47:30;101094.41;;;6.33;83.19
73341;BME280;61578;52.002;5.468;2023-04-25T01:48:01;101096.25;;;6.31;83.30
73341;BME280;61578;52.002;5.468;2023-04-25T01:48:33;101096.41;;;6.28;83.71
73341;BME280;61578;52.002;5.468;2023-04-25T01:49:03;101097.38;;;6.25;83.70
73341;BME280;61578;52.002;5.468;2023-04-25T01:49:34;101101.88;;;6.23;83.54
73341;BME280;61578;52.002;5.468;2023-04-25T01:50:07;101094.34;;;6.14;84.01
73341;BME280;61578;52.002;5.468;2023-04-25T01:50:40;101103.78;;;6.20;84.40
73341;BME280;61578;52.002;5.468;2023-04-25T01:51:12;101097.66;;;6.19;84.32
73341;BME280;61578;52.002;5.468;2023-04-25T01:51:49;101099.44;;;6.19;84.54
73341;BME280;61578;52.002;5.468;2023-04-25T01:52:20;101095.19;;;6.15;84.62
73341;BME280;61578;52.002;5.468;2023-04-25T01:52:51;101106.72;;;6.12;84.76
73341;BME280;61578;52.002;5.468;2023-04-25T01:53:23;101107.78;;;6.08;84.09
73341;BME280;61578;52.002;5.468;2023-04-25T01:54:00;101105.28;;;6.05;84.48
73341;BME280;61578;52.002;5.468;2023-04-25T01:54:31;101107.91;;;6.05;84.59
73341;BME280;61578;52.002;5.468;2023-04-25T01:55:02;101102.97;;;5.98;84.32
73341;BME280;61578;52.002;5.468;2023-04-25T01:55:33;101105.66;;;5.96;84.23
73341;BME280;61578;52.002;5.468;2023-04-25T01:56:04;101114.53;;;5.94;84.87
73341;BME280;61578;52.002;5.468;2023-04-25T01:56:37;101109.31;;;5.92;85.41
73341;BME280;61578;52.002;5.468;2023-04-25T01:57:08;101108.53;;;5.90;85.11
73341;BME280;61578;52.002;5.468;2023-04-25T01:57:41;101114.81;;;5.86;85.53
73341;BME280;61578;52.002;5.468;2023-04-25T01:58:12;101113.09;;;5.85;85.10
73341;BME280;61578;52.002;5.468;2023-04-25T01:58:43;101112.34;;;5.81;84.78
73341;BME280;61578;52.002;5.468;2023-04-25T01:59:13;101107.94;;;5.82;85.22
73341;BME280;61578;52.002;5.468;2023-04-25T01:59:45;101117.56;;;5.83;85.37
73341;BME280;61578;52.002;5.468;2023-04-25T02:00:16;101111.50;;;5.81;85.16
73341;BME280;61578;52.002;5.468;2023-04-25T02:01:10;101110.78;;;5.77;85.34
73341;BME280;61578;52.002;5.468;2023-04-25T02:01:41;101116.91;;;5.78;86.25
73341;BME280;61578;52.002;5.468;2023-04-25T02:02:16;101112.50;;;5.78;86.13
73341;BME280;61578;52.002;5.468;2023-04-25T02:02:47;101119.59;;;5.76;85.88
73341;BME280;61578;52.002;5.468;2023-04-25T02:03:18;101113.53;;;5.74;85.68
73341;BME280;61578;52.002;5.468;2023-04-25T02:03:49;101118.75;;;5.76;85.86
73341;BME280;61578;52.002;5.468;2023-04-25T02:04:22;101111.84;;;5.72;85.42
73341;BME280;61578;52.002;5.468;2023-04-25T02:04:56;101112.88;;;5.69;85.87
73341;BME280;61578;52.002;5.468;2023-04-25T02:05:36;101115.41;;;5.71;86.18
73341;BME280;61578;52.002;5.468;2023-04-25T02:06:08;101112.88;;;5.69;86.73
73341;BME280;61578;52.002;5.468;2023-04-25T02:06:39;101115.41;;;5.71;86.47
73341;BME280;61578;52.002;5.468;2023-04-25T02:07:11;101120.69;;;5.71;86.63
73341;BME280;61578;52.002;5.468;2023-04-25T02:07:42;101109.28;;;5.70;86.53
73341;BME280;61578;52.002;5.468;2023-04-25T02:08:13;101113.72;;;5.70;86.30
73341;BME280;61578;52.002;5.468;2023-04-25T02:08:44;101112.00;;;5.69;86.76
73341;BME280;61578;52.002;5.468;2023-04-25T02:09:14;101118.19;;;5.68;86.05
73341;BME280;61578;52.002;5.468;2023-04-25T02:09:45;101118.19;;;5.68;86.56
73341;BME280;61578;52.002;5.468;2023-04-25T02:10:22;101119.03;;;5.68;85.78
73341;BME280;61578;52.002;5.468;2023-04-25T02:10:53;101112.13;;;5.66;86.09
73341;BME280;61578;52.002;5.468;2023-04-25T02:11:23;101117.38;;;5.66;86.42
73341;BME280;61578;52.002;5.468;2023-04-25T02:11:54;101120.94;;;5.65;85.97
73341;BME280;61578;52.002;5.468;2023-04-25T02:12:25;101123.56;;;5.65;86.07
73341;BME280;61578;52.002;5.468;2023-04-25T02:12:58;101121.84;;;5.64;86.74
73341;BME280;61578;52.002;5.468;2023-04-25T02:13:32;101125.41;;;5.63;86.43
73341;BME280;61578;52.002;5.468;2023-04-25T02:14:02;101121.09;;;5.60;86.78
73341;BME280;61578;52.002;5.468;2023-04-25T02:14:33;101110.00;;;5.52;86.92
73341;BME280;61578;52.002;5.468;2023-04-25T02:15:04;101126.38;;;5.60;87.13
73341;BME280;61578;52.002;5.468;2023-04-25T02:15:36;101122.91;;;5.60;86.57
73341;BME280;61578;52.002;5.468;2023-04-25T02:16:06;101122.81;;;5.61;87.07
73341;BME280;61578;52.002;5.468;2023-04-25T02:16:37;101117.63;;;5.60;86.56
73341;BME280;61578;52.002;5.468;2023-04-25T02:17:09;101123.81;;;5.59;86.58
73341;BME280;61578;52.002;5.468;2023-04-25T02:17:40;101118.59;;;5.57;86.68
73341;BME280;61578;52.002;5.468;2023-04-25T02:18:12;101120.38;;;5.57;86.89
73341;BME280;61578;52.002;5.468;2023-04-25T02:18:49;101126.56;;;5.55;86.78
73341;BME280;61578;52.002;5.468;2023-04-25T02:19:22;101117.06;;;5.51;85.96
73341;BME280;61578;52.002;5.468;2023-04-25T02:19:53;101124.09;;;5.51;86.72
73341;BME280;61578;52.002;5.468;2023-04-25T02:20:24;101124.22;;;5.48;86.91
73341;BME280;61578;52.002;5.468;2023-04-25T02:20:56;101128.75;;;5.44;86.41
73341;BME280;61578;52.002;5.468;2023-04-25T02:21:26;101126.16;;;5.43;86.36
73341;BME280;61578;52.002;5.468;2023-04-25T02:21:58;101127.94;;;5.42;86.61
73341;BME280;61578;52.002;5.468;2023-04-25T02:22:28;101116.59;;;5.40;86.46
73341;BME280;61578;52.002;5.468;2023-04-25T02:23:00;101122.00;;;5.37;86.29
73341;BME280;61578;52.002;5.468;2023-04-25T02:23:31;101118.69;;;5.32;86.52
73341;BME280;61578;52.002;5.468;2023-04-25T02:24:03;101122.16;;;5.33;86.89
73341;BME280;61578;52.002;5.468;2023-04-25T02:24:34;101122.16;;;5.33;86.79
73341;BME280;61578;52.002;5.468;2023-04-25T02:25:05;101120.44;;;5.32;87.03
73341;BME280;61578;52.002;5.468;2023-04-25T02:25:36;101123.09;;;5.32;87.24
73341;BME280;61578;52.002;5.468;2023-04-25T02:26:07;101121.25;;;5.34;87.38
73341;BME280;61578;52.002;5.468;2023-04-25T02:26:38;101118.69;;;5.32;87.04
73341;BME280;61578;52.002;5.468;2023-04-25T02:27:08;101116.03;;;5.32;86.90
73341;BME280;61578;52.002;5.468;2023-04-25T02:27:39;101119.63;;;5.30;87.22
73341;BME280;61578;52.002;5.468;2023-04-25T02:28:10;101116.22;;;5.28;87.29
73341;BME280;61578;52.002;5.468;2023-04-25T02:28:41;101120.63;;;5.27;86.97
73341;BME280;61578;52.002;5.468;2023-04-25T02:29:12;101122.47;;;5.25;86.57
73341;BME280;61578;52.002;5.468;2023-04-25T02:29:45;101118.13;;;5.24;86.90
73341;BME280;61578;52.002;5.468;2023-04-25T02:30:17;101111.47;;;5.14;86.97
73341;BME280;61578;52.002;5.468;2023-04-25T02:30:47;101127.88;;;5.21;86.75
73341;BME280;61578;52.002;5.468;2023-04-25T02:31:18;101121.75;;;5.20;87.50
73341;BME280;61578;52.002;5.468;2023-04-25T02:31:49;101120.84;;;5.21;87.82
73341;BME280;61578;52.002;5.468;2023-04-25T02:32:23;101125.19;;;5.22;87.76
73341;BME280;61578;52.002;5.468;2023-04-25T02:33:00;101123.53;;;5.19;86.79
73341;BME280;61578;52.002;5.468;2023-04-25T02:33:31;101125.44;;;5.16;86.59
73341;BME280;61578;52.002;5.468;2023-04-25T02:34:02;101121.19;;;5.12;86.62
73341;BME280;61578;52.002;5.468;2023-04-25T02:34:32;101124.75;;;5.11;86.30
73341;BME280;61578;52.002;5.468;2023-04-25T02:35:03;101123.16;;;5.07;86.82
73341;BME280;61578;52.002;5.468;2023-04-25T02:35:34;101127.63;;;5.05;86.31
73341;BME280;61578;52.002;5.468;2023-04-25T02:36:06;101122.41;;;5.03;86.71
73341;BME280;61578;52.002;5.468;2023-04-25T02:36:37;101123.31;;;5.02;86.70
73341;BME280;61578;52.002;5.468;2023-04-25T02:37:08;101122.44;;;5.02;87.08
73341;BME280;61578;52.002;5.468;2023-04-25T02:37:40;101126.91;;;5.00;86.57
73341;BME280;61578;52.002;5.468;2023-04-25T02:38:10;101127.81;;;4.99;87.09
73341;BME280;61578;52.002;5.468;2023-04-25T02:38:44;101130.53;;;4.97;87.66
73341;BME280;61578;52.002;5.468;2023-04-25T02:39:15;101129.66;;;4.97;87.02
73341;BME280;61578;52.002;5.468;2023-04-25T02:39:52;101132.34;;;4.95;87.52
73341;BME280;61578;52.002;5.468;2023-04-25T02:40:23;101116.91;;;4.86;87.39
73341;BME280;61578;52.002;5.468;2023-04-25T02:40:53;101136.75;;;4.95;87.42
73341;BME280;61578;52.002;5.468;2023-04-25T02:41:24;101133.31;;;4.93;87.20
73341;BME280;61578;52.002;5.468;2023-04-25T02:41:55;101132.56;;;4.89;86.84
73341;BME280;61578;52.002;5.468;2023-04-25T02:42:26;101143.22;;;4.86;86.85
73341;BME280;61578;52.002;5.468;2023-04-25T02:42:57;101140.63;;;4.85;86.93
73341;BME280;61578;52.002;5.468;2023-04-25T02:43:28;101140.69;;;4.83;86.71
73341;BME280;61578;52.002;5.468;2023-04-25T02:43:59;101137.19;;;4.82;87.33
73341;BME280;61578;52.002;5.468;2023-04-25T02:44:29;101138.84;;;4.85;87.67
73341;BME280;61578;52.002;5.468;2023-04-25T02:45:01;101133.66;;;4.84;87.46
73341;BME280;61578;52.002;5.468;2023-04-25T02:45:32;101137.19;;;4.82;87.45
73341;BME280;61578;52.002;5.468;2023-04-25T02:46:03;101137.19;;;4.82;87.87
73341;BME280;61578;52.002;5.468;2023-04-25T02:46:34;101140.72;;;4.81;87.24
73341;BME280;61578;52.002;5.468;2023-04-25T02:47:12;101127.69;;;4.78;87.16
73341;BME280;61578;52.002;5.468;2023-04-25T02:47:44;101136.44;;;4.79;87.64
73341;BME280;61578;52.002;5.468;2023-04-25T02:48:15;101138.16;;;4.80;87.37
73341;BME280;61578;52.002;5.468;2023-04-25T02:48:46;101139.06;;;4.79;87.93
73341;BME280;61578;52.002;5.468;2023-04-25T02:49:17;101132.94;;;4.78;87.57